Nocc Pamplona — LALG5 — position and weather

sailwx.info

Track history (hours):
 
Tides and Currents Weather Stations Pressure Air Temp Water Temp Dewpoint Dewpoint Depression Visibility Wind Speed Wind Dir Waves Ship Positions

Nocc Pamplona

Last reported at 2016-May-01 18:18 UTC. Time now 2016-May-02 08:21 UTC.
Position N 01°14' E 103°25'.

Length 177 m; draft 8 m.

Type: Cargo ship. MMSI: 257349000.

Date/timePositionNaut miles runAvg speedWind from/ knotsBaromVisibWave heightAir tempDewpointWater temp
2016-May-01 18:18N 01°14' E 103°25'1216.4
2016-May-01 17:33N 01°12' E 103°37'10 9.6
2016-May-01 16:33N 01°17' E 103°45'0 0.0
2016-May-01 15:32N 01°17' E 103°45'0 0.0
2016-May-01 14:32N 01°17' E 103°45'0 0.0
2016-May-01 13:32N 01°17' E 103°45'0 0.0
2016-May-01 12:26N 01°17' E 103°45'0 0.0
2016-May-01 11:32N 01°17' E 103°45'0 0.0
2016-May-01 10:32N 01°17' E 103°45'0 0.0
2016-May-01 09:29N 01°17' E 103°45'0 0.0
2016-May-01 08:32N 01°17' E 103°45'1 0.8
2016-May-01 07:34N 01°17' E 103°45'7 7.1
2016-May-01 06:33N 01°12' E 103°50'5 4.8
2016-May-01 05:29N 01°16' E 103°54'0 0.0
2016-May-01 04:32N 01°16' E 103°54'0 0.1
2016-May-01 03:32N 01°16' E 103°54'0 0.0
2016-May-01 02:23N 01°16' E 103°54'0 0.0
2016-May-01 01:32N 01°16' E 103°54'0 0.0
2016-May-01 00:29N 01°16' E 103°54'0 0.0
2016-Apr-30 23:32N 01°16' E 103°54'0 0.0
2016-Apr-30 22:32N 01°16' E 103°54'0 0.0
2016-Apr-30 21:32N 01°16' E 103°54'0 0.0
2016-Apr-30 20:29N 01°16' E 103°54'0 0.1
2016-Apr-30 19:32N 01°16' E 103°54'0 0.0
2016-Apr-30 17:29N 01°16' E 103°54'0 0.0
2016-Apr-30 16:23N 01°16' E 103°54'0 0.0
2016-Apr-30 15:29N 01°16' E 103°54'2 2.2
2016-Apr-30 14:34N 01°14' E 103°54'8 8.1
2016-Apr-30 13:33N 01°16' E 104°02'  
Track history (hours):
 
Tides and Currents Weather Stations Pressure Air Temp Water Temp Dewpoint Dewpoint Depression Visibility Wind Speed Wind Dir Waves Ship Positions

Nocc Pamplona

Last reported at 2016-May-01 18:18 UTC. Time now 2016-May-02 08:21 UTC.
Position N 01°14' E 103°25'.

Length 177 m; draft 8 m.

Type: Cargo ship. MMSI: 257349000.

Date/timePositionNaut miles runAvg speedWind from/ knotsBaromVisibWave heightAir tempDewpointWater temp
2016-May-01 18:18N 01°14' E 103°25'1216.4
2016-May-01 17:33N 01°12' E 103°37'10 9.6
2016-May-01 16:33N 01°17' E 103°45'0 0.0
2016-May-01 15:32N 01°17' E 103°45'0 0.0
2016-May-01 14:32N 01°17' E 103°45'0 0.0
2016-May-01 13:32N 01°17' E 103°45'0 0.0
2016-May-01 12:26N 01°17' E 103°45'0 0.0
2016-May-01 11:32N 01°17' E 103°45'0 0.0
2016-May-01 10:32N 01°17' E 103°45'0 0.0
2016-May-01 09:29N 01°17' E 103°45'0 0.0
2016-May-01 08:32N 01°17' E 103°45'1 0.8
2016-May-01 07:34N 01°17' E 103°45'7 7.1
2016-May-01 06:33N 01°12' E 103°50'5 4.8
2016-May-01 05:29N 01°16' E 103°54'0 0.0
2016-May-01 04:32N 01°16' E 103°54'0 0.1
2016-May-01 03:32N 01°16' E 103°54'0 0.0
2016-May-01 02:23N 01°16' E 103°54'0 0.0
2016-May-01 01:32N 01°16' E 103°54'0 0.0
2016-May-01 00:29N 01°16' E 103°54'0 0.0
2016-Apr-30 23:32N 01°16' E 103°54'0 0.0
2016-Apr-30 22:32N 01°16' E 103°54'0 0.0
2016-Apr-30 21:32N 01°16' E 103°54'0 0.0
2016-Apr-30 20:29N 01°16' E 103°54'0 0.1
2016-Apr-30 19:32N 01°16' E 103°54'0 0.0
2016-Apr-30 17:29N 01°16' E 103°54'0 0.0
2016-Apr-30 16:23N 01°16' E 103°54'0 0.0
2016-Apr-30 15:29N 01°16' E 103°54'2 2.2
2016-Apr-30 14:34N 01°14' E 103°54'8 8.1
2016-Apr-30 13:33N 01°16' E 104°02'  

Dump ship's entire track history